sensor_id;sensor_type;location;lat;lon;timestamp;P1;durP1;ratioP1;P2;durP2;ratioP2
26774;SDS011;14362;51.902;7.626;2023-09-18T00:00:44;8.13;;;7.32;;
26774;SDS011;14362;51.902;7.626;2023-09-18T00:04:45;9.90;;;7.10;;
26774;SDS011;14362;51.902;7.626;2023-09-18T00:08:48;11.43;;;7.88;;
26774;SDS011;14362;51.902;7.626;2023-09-18T00:12:51;9.00;;;8.10;;
26774;SDS011;14362;51.902;7.626;2023-09-18T00:16:52;10.15;;;7.93;;
26774;SDS011;14362;51.902;7.626;2023-09-18T00:20:53;8.02;;;7.15;;
26774;SDS011;14362;51.902;7.626;2023-09-18T00:24:56;9.45;;;7.13;;
26774;SDS011;14362;51.902;7.626;2023-09-18T00:28:57;7.82;;;7.03;;
26774;SDS011;14362;51.902;7.626;2023-09-18T00:32:59;8.73;;;6.70;;
26774;SDS011;14362;51.902;7.626;2023-09-18T00:37:00;10.02;;;6.68;;
26774;SDS011;14362;51.902;7.626;2023-09-18T00:41:03;8.50;;;7.40;;
26774;SDS011;14362;51.902;7.626;2023-09-18T00:45:05;7.97;;;6.47;;
26774;SDS011;14362;51.902;7.626;2023-09-18T00:49:06;8.40;;;6.90;;
26774;SDS011;14362;51.902;7.626;2023-09-18T00:53:07;9.88;;;6.82;;
26774;SDS011;14362;51.902;7.626;2023-09-18T00:57:10;9.55;;;7.18;;
26774;SDS011;14362;51.902;7.626;2023-09-18T01:01:12;11.20;;;7.10;;
26774;SDS011;14362;51.902;7.626;2023-09-18T01:05:16;7.85;;;7.05;;
26774;SDS011;14362;51.902;7.626;2023-09-18T01:09:17;8.02;;;7.25;;
26774;SDS011;14362;51.902;7.626;2023-09-18T01:13:21;8.05;;;7.25;;
26774;SDS011;14362;51.902;7.626;2023-09-18T01:17:23;8.27;;;7.00;;
26774;SDS011;14362;51.902;7.626;2023-09-18T01:21:25;7.75;;;7.00;;
26774;SDS011;14362;51.902;7.626;2023-09-18T01:25:27;8.23;;;7.53;;
26774;SDS011;14362;51.902;7.626;2023-09-18T01:29:32;8.57;;;7.68;;
26774;SDS011;14362;51.902;7.626;2023-09-18T01:33:33;10.02;;;8.70;;
26774;SDS011;14362;51.902;7.626;2023-09-18T01:37:35;10.23;;;8.20;;
26774;SDS011;14362;51.902;7.626;2023-09-18T01:41:39;8.45;;;7.53;;
26774;SDS011;14362;51.902;7.626;2023-09-18T01:45:41;9.13;;;8.23;;
26774;SDS011;14362;51.902;7.626;2023-09-18T01:49:43;9.40;;;7.50;;
26774;SDS011;14362;51.902;7.626;2023-09-18T01:53:46;8.95;;;8.05;;
26774;SDS011;14362;51.902;7.626;2023-09-18T01:57:48;9.30;;;8.40;;
26774;SDS011;14362;51.902;7.626;2023-09-18T02:01:50;9.15;;;7.65;;
26774;SDS011;14362;51.902;7.626;2023-09-18T02:05:51;10.07;;;8.40;;
26774;SDS011;14362;51.902;7.626;2023-09-18T02:09:55;9.27;;;8.23;;
26774;SDS011;14362;51.902;7.626;2023-09-18T02:13:58;12.90;;;8.43;;
26774;SDS011;14362;51.902;7.626;2023-09-18T02:17:59;9.60;;;8.25;;
26774;SDS011;14362;51.902;7.626;2023-09-18T02:22:00;9.05;;;8.02;;
26774;SDS011;14362;51.902;7.626;2023-09-18T02:26:02;11.27;;;7.80;;
26774;SDS011;14362;51.902;7.626;2023-09-18T02:30:06;9.80;;;7.80;;
26774;SDS011;14362;51.902;7.626;2023-09-18T02:34:08;8.70;;;7.80;;
26774;SDS011;14362;51.902;7.626;2023-09-18T02:38:09;9.98;;;8.10;;
26774;SDS011;14362;51.902;7.626;2023-09-18T02:42:11;11.43;;;7.90;;
26774;SDS011;14362;51.902;7.626;2023-09-18T02:46:13;10.38;;;7.95;;
26774;SDS011;14362;51.902;7.626;2023-09-18T02:50:14;9.80;;;7.93;;
26774;SDS011;14362;51.902;7.626;2023-09-18T02:54:16;10.57;;;8.20;;
26774;SDS011;14362;51.902;7.626;2023-09-18T02:58:17;8.88;;;7.97;;
26774;SDS011;14362;51.902;7.626;2023-09-18T03:02:20;10.65;;;8.15;;
26774;SDS011;14362;51.902;7.626;2023-09-18T03:06:21;10.18;;;8.75;;
26774;SDS011;14362;51.902;7.626;2023-09-18T03:10:23;11.75;;;9.02;;
26774;SDS011;14362;51.902;7.626;2023-09-18T03:14:24;8.93;;;8.02;;
26774;SDS011;14362;51.902;7.626;2023-09-18T03:18:27;11.00;;;8.32;;
26774;SDS011;14362;51.902;7.626;2023-09-18T03:22:28;13.98;;;8.45;;
26774;SDS011;14362;51.902;7.626;2023-09-18T03:26:29;13.57;;;8.95;;
26774;SDS011;14362;51.902;7.626;2023-09-18T03:30:30;15.93;;;8.65;;
26774;SDS011;14362;51.902;7.626;2023-09-18T03:34:33;10.68;;;8.50;;
26774;SDS011;14362;51.902;7.626;2023-09-18T03:38:36;9.30;;;8.30;;
26774;SDS011;14362;51.902;7.626;2023-09-18T03:42:37;15.55;;;7.93;;
26774;SDS011;14362;51.902;7.626;2023-09-18T03:46:39;11.02;;;7.50;;
26774;SDS011;14362;51.902;7.626;2023-09-18T03:50:41;14.68;;;8.18;;
26774;SDS011;14362;51.902;7.626;2023-09-18T03:54:42;8.57;;;7.07;;
26774;SDS011;14362;51.902;7.626;2023-09-18T03:58:44;8.93;;;6.90;;
26774;SDS011;14362;51.902;7.626;2023-09-18T04:02:49;11.45;;;7.07;;
26774;SDS011;14362;51.902;7.626;2023-09-18T04:06:51;8.43;;;6.53;;
26774;SDS011;14362;51.902;7.626;2023-09-18T04:10:54;8.27;;;6.60;;
26774;SDS011;14362;51.902;7.626;2023-09-18T04:14:57;11.80;;;6.72;;
26774;SDS011;14362;51.902;7.626;2023-09-18T04:18:59;9.02;;;6.40;;
26774;SDS011;14362;51.902;7.626;2023-09-18T04:23:23;13.18;;;7.18;;
26774;SDS011;14362;51.902;7.626;2023-09-18T04:27:25;7.60;;;6.00;;
26774;SDS011;14362;51.902;7.626;2023-09-18T04:31:26;9.05;;;6.18;;
26774;SDS011;14362;51.902;7.626;2023-09-18T04:35:28;11.80;;;5.82;;
26774;SDS011;14362;51.902;7.626;2023-09-18T04:39:32;8.30;;;5.97;;
26774;SDS011;14362;51.902;7.626;2023-09-18T04:43:34;8.48;;;5.60;;
26774;SDS011;14362;51.902;7.626;2023-09-18T04:47:35;10.23;;;6.30;;
26774;SDS011;14362;51.902;7.626;2023-09-18T04:51:37;9.40;;;6.10;;
26774;SDS011;14362;51.902;7.626;2023-09-18T04:55:40;7.85;;;6.05;;
26774;SDS011;14362;51.902;7.626;2023-09-18T04:59:42;9.05;;;6.10;;
26774;SDS011;14362;51.902;7.626;2023-09-18T05:03:43;11.75;;;6.00;;
26774;SDS011;14362;51.902;7.626;2023-09-18T05:07:45;10.50;;;6.20;;
26774;SDS011;14362;51.902;7.626;2023-09-18T05:11:47;6.68;;;5.60;;
26774;SDS011;14362;51.902;7.626;2023-09-18T05:15:49;10.05;;;5.88;;
26774;SDS011;14362;51.902;7.626;2023-09-18T05:19:50;15.05;;;5.55;;
26774;SDS011;14362;51.902;7.626;2023-09-18T05:23:51;10.63;;;5.18;;
26774;SDS011;14362;51.902;7.626;2023-09-18T05:27:56;7.82;;;4.97;;
26774;SDS011;14362;51.902;7.626;2023-09-18T05:31:58;10.25;;;5.20;;
26774;SDS011;14362;51.902;7.626;2023-09-18T05:35:59;10.55;;;4.55;;
26774;SDS011;14362;51.902;7.626;2023-09-18T05:40:01;9.40;;;4.15;;
26774;SDS011;14362;51.902;7.626;2023-09-18T05:44:05;8.15;;;4.10;;
26774;SDS011;14362;51.902;7.626;2023-09-18T05:48:07;10.77;;;4.80;;
26774;SDS011;14362;51.902;7.626;2023-09-18T05:52:09;10.13;;;4.35;;
26774;SDS011;14362;51.902;7.626;2023-09-18T05:56:10;10.68;;;4.95;;
26774;SDS011;14362;51.902;7.626;2023-09-18T06:00:16;10.27;;;4.35;;
26774;SDS011;14362;51.902;7.626;2023-09-18T06:04:18;10.75;;;4.40;;
26774;SDS011;14362;51.902;7.626;2023-09-18T06:08:19;12.88;;;4.35;;
26774;SDS011;14362;51.902;7.626;2023-09-18T06:12:20;13.35;;;4.72;;
26774;SDS011;14362;51.902;7.626;2023-09-18T06:16:23;10.63;;;4.95;;
26774;SDS011;14362;51.902;7.626;2023-09-18T06:20:24;11.35;;;4.63;;
26774;SDS011;14362;51.902;7.626;2023-09-18T06:24:25;11.63;;;4.75;;
26774;SDS011;14362;51.902;7.626;2023-09-18T06:28:27;11.52;;;4.70;;
26774;SDS011;14362;51.902;7.626;2023-09-18T06:32:30;11.98;;;4.78;;
26774;SDS011;14362;51.902;7.626;2023-09-18T06:36:31;20.42;;;7.07;;
26774;SDS011;14362;51.902;7.626;2023-09-18T06:40:32;11.43;;;4.20;;
26774;SDS011;14362;51.902;7.626;2023-09-18T06:44:34;13.07;;;4.53;;
26774;SDS011;14362;51.902;7.626;2023-09-18T06:48:36;11.88;;;4.60;;
26774;SDS011;14362;51.902;7.626;2023-09-18T06:52:38;14.82;;;4.97;;
26774;SDS011;14362;51.902;7.626;2023-09-18T06:56:39;14.80;;;5.10;;
26774;SDS011;14362;51.902;7.626;2023-09-18T07:00:41;15.20;;;4.70;;
26774;SDS011;14362;51.902;7.626;2023-09-18T07:04:44;14.18;;;4.45;;
26774;SDS011;14362;51.902;7.626;2023-09-18T07:08:45;20.15;;;5.10;;
26774;SDS011;14362;51.902;7.626;2023-09-18T07:12:47;12.77;;;4.47;;
26774;SDS011;14362;51.902;7.626;2023-09-18T07:16:48;12.93;;;4.07;;
26774;SDS011;14362;51.902;7.626;2023-09-18T07:20:51;12.02;;;4.43;;
26774;SDS011;14362;51.902;7.626;2023-09-18T07:24:52;12.30;;;4.53;;
26774;SDS011;14362;51.902;7.626;2023-09-18T07:28:53;13.23;;;3.85;;
26774;SDS011;14362;51.902;7.626;2023-09-18T07:32:55;13.10;;;4.15;;
26774;SDS011;14362;51.902;7.626;2023-09-18T07:36:59;13.57;;;4.03;;
26774;SDS011;14362;51.902;7.626;2023-09-18T07:41:00;10.80;;;4.13;;
26774;SDS011;14362;51.902;7.626;2023-09-18T07:45:01;10.02;;;4.07;;
26774;SDS011;14362;51.902;7.626;2023-09-18T07:49:03;9.65;;;3.78;;
26774;SDS011;14362;51.902;7.626;2023-09-18T07:53:06;12.43;;;3.50;;
26774;SDS011;14362;51.902;7.626;2023-09-18T07:57:07;8.23;;;3.65;;
26774;SDS011;14362;51.902;7.626;2023-09-18T08:01:09;11.43;;;3.70;;
26774;SDS011;14362;51.902;7.626;2023-09-18T08:05:10;13.02;;;3.90;;
26774;SDS011;14362;51.902;7.626;2023-09-18T08:09:13;7.30;;;3.28;;
26774;SDS011;14362;51.902;7.626;2023-09-18T08:13:15;7.82;;;3.25;;
26774;SDS011;14362;51.902;7.626;2023-09-18T08:17:16;10.48;;;3.35;;
26774;SDS011;14362;51.902;7.626;2023-09-18T08:21:18;8.95;;;3.08;;
26774;SDS011;14362;51.902;7.626;2023-09-18T08:25:21;6.32;;;2.60;;
26774;SDS011;14362;51.902;7.626;2023-09-18T08:29:22;10.98;;;3.28;;
26774;SDS011;14362;51.902;7.626;2023-09-18T08:33:24;11.77;;;3.30;;
26774;SDS011;14362;51.902;7.626;2023-09-18T08:37:25;7.40;;;2.55;;
26774;SDS011;14362;51.902;7.626;2023-09-18T08:41:28;7.95;;;2.70;;
26774;SDS011;14362;51.902;7.626;2023-09-18T08:45:34;8.55;;;3.08;;
26774;SDS011;14362;51.902;7.626;2023-09-18T08:49:36;7.03;;;2.22;;
26774;SDS011;14362;51.902;7.626;2023-09-18T08:53:38;7.93;;;2.78;;
26774;SDS011;14362;51.902;7.626;2023-09-18T08:57:42;6.68;;;2.60;;
26774;SDS011;14362;51.902;7.626;2023-09-18T09:01:44;7.30;;;2.50;;
26774;SDS011;14362;51.902;7.626;2023-09-18T09:05:45;5.65;;;2.33;;
26774;SDS011;14362;51.902;7.626;2023-09-18T09:09:46;6.43;;;2.50;;
26774;SDS011;14362;51.902;7.626;2023-09-18T09:13:50;7.43;;;2.45;;
26774;SDS011;14362;51.902;7.626;2023-09-18T09:18:09;6.03;;;2.33;;
26774;SDS011;14362;51.902;7.626;2023-09-18T09:22:10;5.03;;;2.58;;
26774;SDS011;14362;51.902;7.626;2023-09-18T09:26:20;6.18;;;3.13;;
26774;SDS011;14362;51.902;7.626;2023-09-18T09:30:23;10.68;;;2.75;;
26774;SDS011;14362;51.902;7.626;2023-09-18T09:34:25;5.13;;;2.37;;
26774;SDS011;14362;51.902;7.626;2023-09-18T09:38:29;9.55;;;2.38;;
26774;SDS011;14362;51.902;7.626;2023-09-18T09:42:37;5.15;;;2.50;;
26774;SDS011;14362;51.902;7.626;2023-09-18T09:46:46;4.80;;;2.40;;
26774;SDS011;14362;51.902;7.626;2023-09-18T09:50:48;4.38;;;2.30;;
26774;SDS011;14362;51.902;7.626;2023-09-18T09:54:50;6.90;;;2.33;;
26774;SDS011;14362;51.902;7.626;2023-09-18T09:59:01;4.88;;;1.70;;
26774;SDS011;14362;51.902;7.626;2023-09-18T10:03:05;4.40;;;1.90;;
26774;SDS011;14362;51.902;7.626;2023-09-18T10:07:08;6.80;;;2.00;;
26774;SDS011;14362;51.902;7.626;2023-09-18T10:11:10;6.88;;;1.90;;
26774;SDS011;14362;51.902;7.626;2023-09-18T10:15:16;6.60;;;2.40;;
26774;SDS011;14362;51.902;7.626;2023-09-18T10:19:24;4.23;;;1.83;;
26774;SDS011;14362;51.902;7.626;2023-09-18T10:23:32;8.18;;;2.10;;
26774;SDS011;14362;51.902;7.626;2023-09-18T10:27:35;6.95;;;1.67;;
26774;SDS011;14362;51.902;7.626;2023-09-18T10:31:38;4.75;;;1.80;;
26774;SDS011;14362;51.902;7.626;2023-09-18T10:35:42;5.63;;;2.05;;
26774;SDS011;14362;51.902;7.626;2023-09-18T10:39:44;3.95;;;1.80;;
26774;SDS011;14362;51.902;7.626;2023-09-18T10:43:47;6.93;;;1.77;;
26774;SDS011;14362;51.902;7.626;2023-09-18T10:47:49;3.75;;;1.63;;
26774;SDS011;14362;51.902;7.626;2023-09-18T10:51:54;6.07;;;1.40;;
26774;SDS011;14362;51.902;7.626;2023-09-18T10:55:56;2.97;;;1.40;;
26774;SDS011;14362;51.902;7.626;2023-09-18T11:00:00;3.65;;;1.48;;
26774;SDS011;14362;51.902;7.626;2023-09-18T11:04:03;4.60;;;1.75;;
26774;SDS011;14362;51.902;7.626;2023-09-18T11:16:55;5.25;;;1.58;;
26774;SDS011;14362;51.902;7.626;2023-09-18T11:21:06;4.35;;;1.75;;
26774;SDS011;14362;51.902;7.626;2023-09-18T11:29:27;3.85;;;1.80;;
26774;SDS011;14362;51.902;7.626;2023-09-18T11:33:34;9.70;;;1.70;;
26774;SDS011;14362;51.902;7.626;2023-09-18T11:37:35;8.27;;;1.80;;
26774;SDS011;14362;51.902;7.626;2023-09-18T11:41:37;3.80;;;1.70;;
26774;SDS011;14362;51.902;7.626;2023-09-18T11:45:41;4.90;;;1.70;;
26774;SDS011;14362;51.902;7.626;2023-09-18T11:49:47;3.87;;;1.57;;
26774;SDS011;14362;51.902;7.626;2023-09-18T11:53:53;1.67;;;1.30;;
26774;SDS011;14362;51.902;7.626;2023-09-18T11:57:55;5.78;;;1.50;;
26774;SDS011;14362;51.902;7.626;2023-09-18T12:02:01;4.32;;;1.60;;
26774;SDS011;14362;51.902;7.626;2023-09-18T12:06:07;4.22;;;1.63;;
26774;SDS011;14362;51.902;7.626;2023-09-18T12:10:10;4.05;;;1.65;;
26774;SDS011;14362;51.902;7.626;2023-09-18T12:14:11;7.28;;;2.00;;
26774;SDS011;14362;51.902;7.626;2023-09-18T12:18:15;7.13;;;1.45;;
26774;SDS011;14362;51.902;7.626;2023-09-18T12:22:23;5.32;;;1.67;;
26774;SDS011;14362;51.902;7.626;2023-09-18T12:26:24;5.57;;;1.48;;
26774;SDS011;14362;51.902;7.626;2023-09-18T12:30:26;3.03;;;1.60;;
26774;SDS011;14362;51.902;7.626;2023-09-18T12:34:28;3.30;;;1.50;;
26774;SDS011;14362;51.902;7.626;2023-09-18T12:38:31;6.07;;;2.08;;
26774;SDS011;14362;51.902;7.626;2023-09-18T12:42:32;4.60;;;1.85;;
26774;SDS011;14362;51.902;7.626;2023-09-18T12:46:34;2.97;;;1.73;;
26774;SDS011;14362;51.902;7.626;2023-09-18T12:50:35;7.15;;;1.73;;
26774;SDS011;14362;51.902;7.626;2023-09-18T12:54:39;5.28;;;2.80;;
26774;SDS011;14362;51.902;7.626;2023-09-18T12:58:41;2.38;;;1.73;;
26774;SDS011;14362;51.902;7.626;2023-09-18T13:02:44;8.63;;;1.90;;
26774;SDS011;14362;51.902;7.626;2023-09-18T13:06:45;4.72;;;1.95;;
26774;SDS011;14362;51.902;7.626;2023-09-18T13:10:48;3.90;;;1.75;;
26774;SDS011;14362;51.902;7.626;2023-09-18T13:14:57;2.38;;;1.85;;
26774;SDS011;14362;51.902;7.626;2023-09-18T13:19:03;3.75;;;1.90;;
26774;SDS011;14362;51.902;7.626;2023-09-18T13:23:04;7.13;;;1.70;;
26774;SDS011;14362;51.902;7.626;2023-09-18T13:27:07;2.88;;;1.60;;
26774;SDS011;14362;51.902;7.626;2023-09-18T13:31:08;3.20;;;1.90;;
26774;SDS011;14362;51.902;7.626;2023-09-18T13:35:09;6.18;;;1.63;;
26774;SDS011;14362;51.902;7.626;2023-09-18T13:39:12;3.92;;;2.05;;
26774;SDS011;14362;51.902;7.626;2023-09-18T13:43:18;6.90;;;1.83;;
26774;SDS011;14362;51.902;7.626;2023-09-18T13:47:21;4.75;;;2.13;;
26774;SDS011;14362;51.902;7.626;2023-09-18T13:51:22;2.17;;;1.60;;
26774;SDS011;14362;51.902;7.626;2023-09-18T13:55:24;2.85;;;1.70;;
26774;SDS011;14362;51.902;7.626;2023-09-18T13:59:27;9.00;;;2.00;;
26774;SDS011;14362;51.902;7.626;2023-09-18T14:03:29;2.67;;;1.95;;
26774;SDS011;14362;51.902;7.626;2023-09-18T14:07:31;2.88;;;1.95;;
26774;SDS011;14362;51.902;7.626;2023-09-18T14:11:33;2.45;;;1.85;;
26774;SDS011;14362;51.902;7.626;2023-09-18T14:15:39;3.47;;;1.85;;
26774;SDS011;14362;51.902;7.626;2023-09-18T14:19:40;3.90;;;1.90;;
26774;SDS011;14362;51.902;7.626;2023-09-18T14:23:41;2.72;;;1.55;;
26774;SDS011;14362;51.902;7.626;2023-09-18T14:27:43;6.15;;;1.58;;
26774;SDS011;14362;51.902;7.626;2023-09-18T14:31:45;4.60;;;2.08;;
26774;SDS011;14362;51.902;7.626;2023-09-18T14:35:47;5.28;;;1.80;;
26774;SDS011;14362;51.902;7.626;2023-09-18T14:39:48;4.60;;;1.88;;
26774;SDS011;14362;51.902;7.626;2023-09-18T14:43:49;5.50;;;1.80;;
26774;SDS011;14362;51.902;7.626;2023-09-18T14:47:52;4.18;;;1.50;;
26774;SDS011;14362;51.902;7.626;2023-09-18T14:51:53;2.03;;;1.50;;
26774;SDS011;14362;51.902;7.626;2023-09-18T14:55:54;4.05;;;1.58;;
26774;SDS011;14362;51.902;7.626;2023-09-18T14:59:56;1.80;;;1.40;;
26774;SDS011;14362;51.902;7.626;2023-09-18T15:03:59;3.35;;;1.73;;
26774;SDS011;14362;51.902;7.626;2023-09-18T15:08:00;2.85;;;1.42;;
26774;SDS011;14362;51.902;7.626;2023-09-18T15:12:02;3.10;;;1.30;;
26774;SDS011;14362;51.902;7.626;2023-09-18T15:16:04;3.38;;;1.70;;
26774;SDS011;14362;51.902;7.626;2023-09-18T15:20:08;2.00;;;1.45;;
26774;SDS011;14362;51.902;7.626;2023-09-18T15:24:12;3.70;;;1.48;;
26774;SDS011;14362;51.902;7.626;2023-09-18T15:28:13;3.70;;;1.55;;
26774;SDS011;14362;51.902;7.626;2023-09-18T15:32:16;2.95;;;1.73;;
26774;SDS011;14362;51.902;7.626;2023-09-18T15:36:21;3.33;;;1.50;;
26774;SDS011;14362;51.902;7.626;2023-09-18T15:40:23;4.20;;;1.70;;
26774;SDS011;14362;51.902;7.626;2023-09-18T15:44:24;2.88;;;1.33;;
26774;SDS011;14362;51.902;7.626;2023-09-18T15:48:26;5.70;;;1.48;;
26774;SDS011;14362;51.902;7.626;2023-09-18T15:52:28;2.70;;;1.30;;
26774;SDS011;14362;51.902;7.626;2023-09-18T15:56:30;2.55;;;1.90;;
26774;SDS011;14362;51.902;7.626;2023-09-18T16:00:33;3.17;;;1.55;;
26774;SDS011;14362;51.902;7.626;2023-09-18T16:04:34;4.70;;;1.80;;
26774;SDS011;14362;51.902;7.626;2023-09-18T16:08:37;4.60;;;1.80;;
26774;SDS011;14362;51.902;7.626;2023-09-18T16:12:39;4.55;;;1.42;;
26774;SDS011;14362;51.902;7.626;2023-09-18T16:16:40;3.50;;;1.65;;
26774;SDS011;14362;51.902;7.626;2023-09-18T16:20:42;2.90;;;1.48;;
26774;SDS011;14362;51.902;7.626;2023-09-18T16:24:45;3.35;;;1.58;;
26774;SDS011;14362;51.902;7.626;2023-09-18T16:28:46;2.35;;;1.30;;
26774;SDS011;14362;51.902;7.626;2023-09-18T16:32:48;2.75;;;1.77;;
26774;SDS011;14362;51.902;7.626;2023-09-18T16:36:49;2.95;;;1.50;;
26774;SDS011;14362;51.902;7.626;2023-09-18T16:40:52;3.13;;;1.63;;
26774;SDS011;14362;51.902;7.626;2023-09-18T16:44:53;7.53;;;3.03;;
26774;SDS011;14362;51.902;7.626;2023-09-18T16:48:54;4.20;;;1.70;;
26774;SDS011;14362;51.902;7.626;2023-09-18T16:52:55;5.70;;;1.80;;
26774;SDS011;14362;51.902;7.626;2023-09-18T16:56:59;3.53;;;1.60;;
26774;SDS011;14362;51.902;7.626;2023-09-18T17:01:00;3.67;;;1.95;;
26774;SDS011;14362;51.902;7.626;2023-09-18T17:05:02;3.45;;;1.75;;
26774;SDS011;14362;51.902;7.626;2023-09-18T17:09:04;5.38;;;2.20;;
26774;SDS011;14362;51.902;7.626;2023-09-18T17:13:07;6.28;;;1.80;;
26774;SDS011;14362;51.902;7.626;2023-09-18T17:17:08;4.18;;;1.77;;
26774;SDS011;14362;51.902;7.626;2023-09-18T17:21:09;3.75;;;1.83;;
26774;SDS011;14362;51.902;7.626;2023-09-18T17:25:11;6.25;;;1.77;;
26774;SDS011;14362;51.902;7.626;2023-09-18T17:29:13;1.85;;;1.50;;
26774;SDS011;14362;51.902;7.626;2023-09-18T17:33:15;2.58;;;1.50;;
26774;SDS011;14362;51.902;7.626;2023-09-18T17:37:16;3.67;;;1.60;;
26774;SDS011;14362;51.902;7.626;2023-09-18T17:41:17;4.15;;;1.60;;
26774;SDS011;14362;51.902;7.626;2023-09-18T17:45:20;2.53;;;1.77;;
26774;SDS011;14362;51.902;7.626;2023-09-18T17:49:21;2.78;;;1.77;;
26774;SDS011;14362;51.902;7.626;2023-09-18T17:53:24;1.85;;;1.60;;
26774;SDS011;14362;51.902;7.626;2023-09-18T17:57:25;4.07;;;1.83;;
26774;SDS011;14362;51.902;7.626;2023-09-18T18:01:28;3.47;;;1.70;;
26774;SDS011;14362;51.902;7.626;2023-09-18T18:05:29;5.28;;;1.80;;
26774;SDS011;14362;51.902;7.626;2023-09-18T18:09:31;1.58;;;0.85;;
26774;SDS011;14362;51.902;7.626;2023-09-18T18:13:32;2.22;;;1.10;;
26774;SDS011;14362;51.902;7.626;2023-09-18T18:17:35;4.75;;;1.27;;
26774;SDS011;14362;51.902;7.626;2023-09-18T18:21:36;2.35;;;0.80;;
26774;SDS011;14362;51.902;7.626;2023-09-18T18:25:38;1.23;;;0.93;;
26774;SDS011;14362;51.902;7.626;2023-09-18T18:29:40;1.05;;;0.95;;
26774;SDS011;14362;51.902;7.626;2023-09-18T18:33:42;1.40;;;0.70;;
26774;SDS011;14362;51.902;7.626;2023-09-18T18:37:43;2.33;;;0.82;;
26774;SDS011;14362;51.902;7.626;2023-09-18T18:41:46;2.92;;;1.10;;
26774;SDS011;14362;51.902;7.626;2023-09-18T18:45:50;3.45;;;1.13;;
26774;SDS011;14362;51.902;7.626;2023-09-18T18:49:52;3.35;;;1.20;;
26774;SDS011;14362;51.902;7.626;2023-09-18T18:53:54;2.90;;;1.48;;
26774;SDS011;14362;51.902;7.626;2023-09-18T18:57:56;3.20;;;1.60;;
26774;SDS011;14362;51.902;7.626;2023-09-18T19:01:58;4.38;;;1.63;;
26774;SDS011;14362;51.902;7.626;2023-09-18T19:06:06;3.23;;;1.97;;
26774;SDS011;14362;51.902;7.626;2023-09-18T19:10:08;3.42;;;1.58;;
26774;SDS011;14362;51.902;7.626;2023-09-18T19:14:09;7.72;;;2.00;;
26774;SDS011;14362;51.902;7.626;2023-09-18T19:18:10;4.18;;;2.08;;
26774;SDS011;14362;51.902;7.626;2023-09-18T19:22:13;3.08;;;1.85;;
26774;SDS011;14362;51.902;7.626;2023-09-18T19:26:14;5.32;;;2.08;;
26774;SDS011;14362;51.902;7.626;2023-09-18T19:30:18;3.80;;;1.85;;
26774;SDS011;14362;51.902;7.626;2023-09-18T19:34:20;4.35;;;2.38;;
26774;SDS011;14362;51.902;7.626;2023-09-18T19:38:22;7.00;;;2.40;;
26774;SDS011;14362;51.902;7.626;2023-09-18T19:42:24;3.80;;;2.22;;
26774;SDS011;14362;51.902;7.626;2023-09-18T19:46:25;5.05;;;2.42;;
26774;SDS011;14362;51.902;7.626;2023-09-18T19:50:28;5.90;;;2.85;;
26774;SDS011;14362;51.902;7.626;2023-09-18T19:54:32;4.40;;;2.83;;
26774;SDS011;14362;51.902;7.626;2023-09-18T19:58:33;4.97;;;3.03;;
26774;SDS011;14362;51.902;7.626;2023-09-18T20:02:34;6.68;;;3.17;;
26774;SDS011;14362;51.902;7.626;2023-09-18T20:06:36;4.65;;;2.65;;
26774;SDS011;14362;51.902;7.626;2023-09-18T20:10:39;5.43;;;2.58;;
26774;SDS011;14362;51.902;7.626;2023-09-18T20:14:40;7.30;;;2.70;;
26774;SDS011;14362;51.902;7.626;2023-09-18T20:18:43;6.60;;;3.08;;
26774;SDS011;14362;51.902;7.626;2023-09-18T20:22:44;4.72;;;2.38;;
26774;SDS011;14362;51.902;7.626;2023-09-18T20:26:47;3.63;;;2.60;;
26774;SDS011;14362;51.902;7.626;2023-09-18T20:30:50;4.28;;;2.50;;
26774;SDS011;14362;51.902;7.626;2023-09-18T20:34:52;3.47;;;2.40;;
26774;SDS011;14362;51.902;7.626;2023-09-18T20:38:54;4.05;;;2.30;;
26774;SDS011;14362;51.902;7.626;2023-09-18T20:42:56;3.22;;;2.30;;
26774;SDS011;14362;51.902;7.626;2023-09-18T20:46:58;2.92;;;2.30;;
26774;SDS011;14362;51.902;7.626;2023-09-18T20:50:59;5.72;;;2.70;;
26774;SDS011;14362;51.902;7.626;2023-09-18T20:55:00;4.22;;;2.42;;
26774;SDS011;14362;51.902;7.626;2023-09-18T20:59:03;4.32;;;2.38;;
26774;SDS011;14362;51.902;7.626;2023-09-18T21:03:06;3.33;;;2.60;;
26774;SDS011;14362;51.902;7.626;2023-09-18T21:07:07;6.75;;;2.80;;
26774;SDS011;14362;51.902;7.626;2023-09-18T21:11:09;4.80;;;2.50;;
26774;SDS011;14362;51.902;7.626;2023-09-18T21:15:12;3.63;;;2.70;;
26774;SDS011;14362;51.902;7.626;2023-09-18T21:19:14;4.57;;;2.78;;
26774;SDS011;14362;51.902;7.626;2023-09-18T21:23:15;4.25;;;2.92;;
26774;SDS011;14362;51.902;7.626;2023-09-18T21:27:16;4.60;;;2.60;;
26774;SDS011;14362;51.902;7.626;2023-09-18T21:31:19;6.55;;;2.88;;
26774;SDS011;14362;51.902;7.626;2023-09-18T21:35:21;5.40;;;2.90;;
26774;SDS011;14362;51.902;7.626;2023-09-18T21:39:22;6.72;;;3.15;;
26774;SDS011;14362;51.902;7.626;2023-09-18T21:43:24;6.57;;;3.38;;
26774;SDS011;14362;51.902;7.626;2023-09-18T21:47:26;5.72;;;3.20;;
26774;SDS011;14362;51.902;7.626;2023-09-18T21:51:28;5.78;;;2.95;;
26774;SDS011;14362;51.902;7.626;2023-09-18T21:55:34;5.18;;;3.45;;
26774;SDS011;14362;51.902;7.626;2023-09-18T21:59:35;5.22;;;3.72;;
26774;SDS011;14362;51.902;7.626;2023-09-18T22:03:38;4.55;;;3.30;;
26774;SDS011;14362;51.902;7.626;2023-09-18T22:07:40;3.65;;;3.25;;
26774;SDS011;14362;51.902;7.626;2023-09-18T22:11:41;6.10;;;3.13;;
26774;SDS011;14362;51.902;7.626;2023-09-18T22:15:42;5.63;;;3.08;;
26774;SDS011;14362;51.902;7.626;2023-09-18T22:19:45;5.07;;;3.05;;
26774;SDS011;14362;51.902;7.626;2023-09-18T22:23:46;3.70;;;3.30;;
26774;SDS011;14362;51.902;7.626;2023-09-18T22:27:47;6.97;;;3.50;;
26774;SDS011;14362;51.902;7.626;2023-09-18T22:31:49;5.22;;;3.33;;
26774;SDS011;14362;51.902;7.626;2023-09-18T22:35:54;6.00;;;3.28;;
26774;SDS011;14362;51.902;7.626;2023-09-18T22:56:49;7.75;;;3.63;;
26774;SDS011;14362;51.902;7.626;2023-09-18T23:00:50;7.60;;;3.40;;
26774;SDS011;14362;51.902;7.626;2023-09-18T23:04:52;6.95;;;3.17;;
26774;SDS011;14362;51.902;7.626;2023-09-18T23:08:55;7.15;;;3.30;;
26774;SDS011;14362;51.902;7.626;2023-09-18T23:12:59;6.03;;;3.28;;
26774;SDS011;14362;51.902;7.626;2023-09-18T23:17:03;6.70;;;3.58;;
26774;SDS011;14362;51.902;7.626;2023-09-18T23:21:06;7.15;;;3.60;;
26774;SDS011;14362;51.902;7.626;2023-09-18T23:25:08;9.23;;;3.90;;
26774;SDS011;14362;51.902;7.626;2023-09-18T23:29:12;6.87;;;3.53;;
26774;SDS011;14362;51.902;7.626;2023-09-18T23:33:15;7.53;;;3.30;;
26774;SDS011;14362;51.902;7.626;2023-09-18T23:41:23;7.35;;;3.25;;
26774;SDS011;14362;51.902;7.626;2023-09-18T23:45:27;5.20;;;3.15;;
26774;SDS011;14362;51.902;7.626;2023-09-18T23:49:32;7.72;;;3.42;;
26774;SDS011;14362;51.902;7.626;2023-09-18T23:53:35;8.80;;;3.38;;
26774;SDS011;14362;51.902;7.626;2023-09-18T23:57:37;7.82;;;3.35;;
